sensor_id;sensor_type;location;lat;lon;timestamp;P1;durP1;ratioP1;P2;durP2;ratioP2
317;SDS011;146;53.448;10.228;2024-02-28T00:02:17;15.80;;;14.50;;
317;SDS011;146;53.448;10.228;2024-02-28T00:05:05;15.67;;;14.33;;
317;SDS011;146;53.448;10.228;2024-02-28T00:07:52;17.10;;;15.77;;
317;SDS011;146;53.448;10.228;2024-02-28T00:10:39;15.83;;;14.53;;
317;SDS011;146;53.448;10.228;2024-02-28T00:13:26;15.77;;;14.47;;
317;SDS011;146;53.448;10.228;2024-02-28T00:16:13;17.07;;;15.57;;
317;SDS011;146;53.448;10.228;2024-02-28T00:19:02;16.47;;;15.17;;
317;SDS011;146;53.448;10.228;2024-02-28T00:21:49;16.47;;;15.07;;
317;SDS011;146;53.448;10.228;2024-02-28T00:24:36;17.90;;;16.40;;
317;SDS011;146;53.448;10.228;2024-02-28T00:27:23;16.83;;;15.47;;
317;SDS011;146;53.448;10.228;2024-02-28T00:30:11;17.23;;;15.93;;
317;SDS011;146;53.448;10.228;2024-02-28T00:32:59;18.33;;;16.83;;
317;SDS011;146;53.448;10.228;2024-02-28T00:35:47;17.67;;;16.23;;
317;SDS011;146;53.448;10.228;2024-02-28T00:38:35;17.27;;;15.77;;
317;SDS011;146;53.448;10.228;2024-02-28T00:41:22;16.80;;;15.40;;
317;SDS011;146;53.448;10.228;2024-02-28T00:44:09;16.93;;;15.53;;
317;SDS011;146;53.448;10.228;2024-02-28T00:46:56;18.37;;;16.77;;
317;SDS011;146;53.448;10.228;2024-02-28T00:49:43;17.03;;;15.63;;
317;SDS011;146;53.448;10.228;2024-02-28T00:52:31;17.10;;;15.70;;
317;SDS011;146;53.448;10.228;2024-02-28T00:55:18;17.57;;;16.17;;
317;SDS011;146;53.448;10.228;2024-02-28T00:58:06;18.90;;;17.30;;
317;SDS011;146;53.448;10.228;2024-02-28T01:00:53;17.77;;;16.33;;
317;SDS011;146;53.448;10.228;2024-02-28T01:03:40;17.50;;;16.00;;
317;SDS011;146;53.448;10.228;2024-02-28T01:06:27;18.43;;;16.90;;
317;SDS011;146;53.448;10.228;2024-02-28T01:09:16;18.30;;;16.70;;
317;SDS011;146;53.448;10.228;2024-02-28T01:12:03;18.03;;;16.53;;
317;SDS011;146;53.448;10.228;2024-02-28T01:14:50;19.00;;;17.37;;
317;SDS011;146;53.448;10.228;2024-02-28T01:17:37;19.87;;;18.27;;
317;SDS011;146;53.448;10.228;2024-02-28T01:20:24;19.97;;;18.37;;
317;SDS011;146;53.448;10.228;2024-02-28T01:23:12;19.70;;;18.03;;
317;SDS011;146;53.448;10.228;2024-02-28T01:26:01;18.20;;;16.80;;
317;SDS011;146;53.448;10.228;2024-02-28T01:28:49;18.83;;;17.33;;
317;SDS011;146;53.448;10.228;2024-02-28T01:31:36;18.53;;;17.03;;
317;SDS011;146;53.448;10.228;2024-02-28T01:34:23;18.30;;;16.90;;
317;SDS011;146;53.448;10.228;2024-02-28T01:40:19;18.40;;;16.90;;
317;SDS011;146;53.448;10.228;2024-02-28T01:43:08;19.93;;;18.33;;
317;SDS011;146;53.448;10.228;2024-02-28T01:45:55;20.20;;;18.33;;
317;SDS011;146;53.448;10.228;2024-02-28T01:48:43;20.07;;;18.40;;
317;SDS011;146;53.448;10.228;2024-02-28T01:51:30;20.17;;;18.47;;
317;SDS011;146;53.448;10.228;2024-02-28T01:54:17;20.13;;;18.43;;
317;SDS011;146;53.448;10.228;2024-02-28T01:57:05;21.13;;;19.33;;
317;SDS011;146;53.448;10.228;2024-02-28T01:59:54;20.77;;;19.07;;
317;SDS011;146;53.448;10.228;2024-02-28T02:02:42;21.03;;;19.37;;
317;SDS011;146;53.448;10.228;2024-02-28T02:05:29;20.17;;;18.37;;
317;SDS011;146;53.448;10.228;2024-02-28T02:08:16;21.90;;;20.10;;
317;SDS011;146;53.448;10.228;2024-02-28T02:11:04;21.10;;;19.30;;
317;SDS011;146;53.448;10.228;2024-02-28T02:13:51;20.17;;;18.37;;
317;SDS011;146;53.448;10.228;2024-02-28T02:16:40;18.53;;;16.93;;
317;SDS011;146;53.448;10.228;2024-02-28T02:19:27;19.50;;;17.77;;
317;SDS011;146;53.448;10.228;2024-02-28T02:22:14;19.83;;;18.00;;
317;SDS011;146;53.448;10.228;2024-02-28T02:25:04;19.60;;;18.00;;
317;SDS011;146;53.448;10.228;2024-02-28T02:27:52;18.47;;;16.87;;
317;SDS011;146;53.448;10.228;2024-02-28T02:30:39;20.70;;;18.90;;
317;SDS011;146;53.448;10.228;2024-02-28T02:33:27;20.50;;;18.73;;
317;SDS011;146;53.448;10.228;2024-02-28T02:36:14;21.60;;;19.60;;
317;SDS011;146;53.448;10.228;2024-02-28T02:39:01;20.97;;;19.07;;
317;SDS011;146;53.448;10.228;2024-02-28T02:41:50;22.13;;;20.13;;
317;SDS011;146;53.448;10.228;2024-02-28T02:44:37;22.97;;;20.80;;
317;SDS011;146;53.448;10.228;2024-02-28T02:47:24;24.60;;;22.40;;
317;SDS011;146;53.448;10.228;2024-02-28T02:50:11;23.70;;;21.50;;
317;SDS011;146;53.448;10.228;2024-02-28T02:52:58;22.63;;;20.60;;
317;SDS011;146;53.448;10.228;2024-02-28T02:55:46;23.73;;;21.60;;
317;SDS011;146;53.448;10.228;2024-02-28T02:58:34;24.07;;;21.83;;
317;SDS011;146;53.448;10.228;2024-02-28T03:01:25;23.97;;;21.70;;
317;SDS011;146;53.448;10.228;2024-02-28T03:04:12;24.00;;;21.70;;
317;SDS011;146;53.448;10.228;2024-02-28T03:06:59;23.90;;;21.70;;
317;SDS011;146;53.448;10.228;2024-02-28T03:09:46;24.27;;;22.07;;
317;SDS011;146;53.448;10.228;2024-02-28T03:12:33;24.70;;;22.30;;
317;SDS011;146;53.448;10.228;2024-02-28T03:15:24;25.07;;;22.60;;
317;SDS011;146;53.448;10.228;2024-02-28T03:18:14;24.23;;;21.93;;
317;SDS011;146;53.448;10.228;2024-02-28T03:21:02;24.60;;;22.20;;
317;SDS011;146;53.448;10.228;2024-02-28T03:23:52;23.33;;;20.93;;
317;SDS011;146;53.448;10.228;2024-02-28T03:26:42;26.03;;;23.47;;
317;SDS011;146;53.448;10.228;2024-02-28T03:29:29;24.10;;;21.80;;
317;SDS011;146;53.448;10.228;2024-02-28T03:32:18;24.30;;;21.80;;
317;SDS011;146;53.448;10.228;2024-02-28T03:35:05;25.87;;;23.37;;
317;SDS011;146;53.448;10.228;2024-02-28T03:37:54;25.37;;;22.80;;
317;SDS011;146;53.448;10.228;2024-02-28T03:40:41;25.33;;;22.93;;
317;SDS011;146;53.448;10.228;2024-02-28T03:43:29;25.97;;;23.37;;
317;SDS011;146;53.448;10.228;2024-02-28T03:53:35;24.00;;;21.60;;
317;SDS011;146;53.448;10.228;2024-02-28T03:56:22;23.87;;;21.50;;
317;SDS011;146;53.448;10.228;2024-02-28T03:59:10;24.30;;;21.90;;
317;SDS011;146;53.448;10.228;2024-02-28T04:01:57;24.13;;;21.70;;
317;SDS011;146;53.448;10.228;2024-02-28T04:04:44;24.77;;;22.27;;
317;SDS011;146;53.448;10.228;2024-02-28T04:07:32;23.57;;;21.17;;
317;SDS011;146;53.448;10.228;2024-02-28T04:10:20;23.40;;;21.10;;
317;SDS011;146;53.448;10.228;2024-02-28T04:13:07;24.27;;;21.87;;
317;SDS011;146;53.448;10.228;2024-02-28T04:15:54;23.70;;;21.30;;
317;SDS011;146;53.448;10.228;2024-02-28T04:18:42;24.93;;;22.43;;
317;SDS011;146;53.448;10.228;2024-02-28T04:21:29;22.30;;;20.20;;
317;SDS011;146;53.448;10.228;2024-02-28T04:24:18;24.30;;;22.00;;
317;SDS011;146;53.448;10.228;2024-02-28T04:27:05;22.37;;;20.17;;
317;SDS011;146;53.448;10.228;2024-02-28T04:29:55;24.07;;;21.73;;
317;SDS011;146;53.448;10.228;2024-02-28T04:32:42;21.60;;;19.50;;
317;SDS011;146;53.448;10.228;2024-02-28T04:35:29;22.70;;;20.43;;
317;SDS011;146;53.448;10.228;2024-02-28T04:38:16;22.43;;;20.23;;
317;SDS011;146;53.448;10.228;2024-02-28T04:41:04;23.87;;;21.57;;
317;SDS011;146;53.448;10.228;2024-02-28T04:43:51;23.40;;;21.10;;
317;SDS011;146;53.448;10.228;2024-02-28T04:46:38;21.87;;;19.80;;
317;SDS011;146;53.448;10.228;2024-02-28T04:49:25;23.63;;;21.33;;
317;SDS011;146;53.448;10.228;2024-02-28T04:52:13;22.37;;;20.17;;
317;SDS011;146;53.448;10.228;2024-02-28T04:55:00;21.77;;;19.70;;
317;SDS011;146;53.448;10.228;2024-02-28T04:57:48;22.63;;;20.43;;
317;SDS011;146;53.448;10.228;2024-02-28T05:00:36;22.53;;;20.43;;
317;SDS011;146;53.448;10.228;2024-02-28T05:03:23;22.70;;;20.50;;
317;SDS011;146;53.448;10.228;2024-02-28T05:06:10;22.30;;;20.17;;
317;SDS011;146;53.448;10.228;2024-02-28T05:08:57;21.60;;;19.60;;
317;SDS011;146;53.448;10.228;2024-02-28T05:11:44;21.13;;;19.23;;
317;SDS011;146;53.448;10.228;2024-02-28T05:14:33;19.93;;;17.83;;
317;SDS011;146;53.448;10.228;2024-02-28T05:17:20;19.23;;;17.30;;
317;SDS011;146;53.448;10.228;2024-02-28T05:20:07;18.93;;;17.13;;
317;SDS011;146;53.448;10.228;2024-02-28T05:22:55;19.40;;;17.63;;
317;SDS011;146;53.448;10.228;2024-02-28T05:25:42;18.60;;;16.70;;
317;SDS011;146;53.448;10.228;2024-02-28T05:28:29;18.27;;;16.47;;
317;SDS011;146;53.448;10.228;2024-02-28T05:31:23;17.40;;;15.87;;
317;SDS011;146;53.448;10.228;2024-02-28T05:34:11;18.27;;;16.57;;
317;SDS011;146;53.448;10.228;2024-02-28T05:36:58;18.30;;;16.60;;
317;SDS011;146;53.448;10.228;2024-02-28T05:39:46;19.43;;;17.57;;
317;SDS011;146;53.448;10.228;2024-02-28T05:42:33;18.63;;;16.83;;
317;SDS011;146;53.448;10.228;2024-02-28T05:45:20;19.00;;;17.20;;
317;SDS011;146;53.448;10.228;2024-02-28T05:48:09;19.40;;;17.47;;
317;SDS011;146;53.448;10.228;2024-02-28T05:50:56;18.30;;;16.50;;
317;SDS011;146;53.448;10.228;2024-02-28T05:53:43;18.77;;;16.97;;
317;SDS011;146;53.448;10.228;2024-02-28T05:56:30;18.40;;;16.50;;
317;SDS011;146;53.448;10.228;2024-02-28T05:59:17;18.20;;;16.50;;
317;SDS011;146;53.448;10.228;2024-02-28T06:02:04;19.00;;;17.20;;
317;SDS011;146;53.448;10.228;2024-02-28T06:04:52;18.60;;;16.90;;
317;SDS011;146;53.448;10.228;2024-02-28T06:07:40;17.37;;;15.77;;
317;SDS011;146;53.448;10.228;2024-02-28T06:10:27;19.03;;;17.33;;
317;SDS011;146;53.448;10.228;2024-02-28T06:13:14;17.40;;;15.90;;
317;SDS011;146;53.448;10.228;2024-02-28T06:16:01;19.60;;;17.60;;
317;SDS011;146;53.448;10.228;2024-02-28T06:18:48;18.80;;;17.00;;
317;SDS011;146;53.448;10.228;2024-02-28T06:21:37;17.13;;;15.53;;
317;SDS011;146;53.448;10.228;2024-02-28T06:31:54;17.97;;;16.30;;
317;SDS011;146;53.448;10.228;2024-02-28T06:34:45;17.70;;;15.90;;
317;SDS011;146;53.448;10.228;2024-02-28T06:37:36;16.90;;;15.40;;
317;SDS011;146;53.448;10.228;2024-02-28T06:40:23;19.30;;;17.50;;
317;SDS011;146;53.448;10.228;2024-02-28T06:43:10;19.33;;;17.57;;
317;SDS011;146;53.448;10.228;2024-02-28T06:45:57;19.40;;;17.60;;
317;SDS011;146;53.448;10.228;2024-02-28T06:48:44;17.57;;;15.90;;
317;SDS011;146;53.448;10.228;2024-02-28T06:51:32;18.77;;;17.07;;
317;SDS011;146;53.448;10.228;2024-02-28T06:54:21;18.47;;;16.70;;
317;SDS011;146;53.448;10.228;2024-02-28T06:57:11;16.67;;;15.10;;
317;SDS011;146;53.448;10.228;2024-02-28T06:59:58;17.53;;;15.83;;
317;SDS011;146;53.448;10.228;2024-02-28T07:02:45;18.10;;;16.40;;
317;SDS011;146;53.448;10.228;2024-02-28T07:05:32;18.00;;;16.23;;
317;SDS011;146;53.448;10.228;2024-02-28T07:08:20;18.20;;;16.60;;
317;SDS011;146;53.448;10.228;2024-02-28T07:11:14;17.20;;;15.60;;
317;SDS011;146;53.448;10.228;2024-02-28T07:14:01;16.07;;;14.57;;
317;SDS011;146;53.448;10.228;2024-02-28T07:16:50;16.03;;;14.63;;
317;SDS011;146;53.448;10.228;2024-02-28T07:19:41;15.73;;;14.33;;
317;SDS011;146;53.448;10.228;2024-02-28T07:22:29;15.80;;;14.30;;
317;SDS011;146;53.448;10.228;2024-02-28T07:25:17;16.33;;;14.73;;
317;SDS011;146;53.448;10.228;2024-02-28T07:28:07;15.17;;;13.77;;
317;SDS011;146;53.448;10.228;2024-02-28T07:30:54;16.00;;;14.60;;
317;SDS011;146;53.448;10.228;2024-02-28T07:33:42;15.27;;;13.90;;
317;SDS011;146;53.448;10.228;2024-02-28T07:36:29;16.93;;;15.33;;
317;SDS011;146;53.448;10.228;2024-02-28T07:39:16;15.43;;;13.97;;
317;SDS011;146;53.448;10.228;2024-02-28T07:42:04;15.43;;;14.03;;
317;SDS011;146;53.448;10.228;2024-02-28T07:44:55;15.70;;;14.30;;
317;SDS011;146;53.448;10.228;2024-02-28T07:47:43;16.93;;;15.33;;
317;SDS011;146;53.448;10.228;2024-02-28T07:50:30;16.60;;;15.20;;
317;SDS011;146;53.448;10.228;2024-02-28T07:53:23;16.30;;;14.80;;
317;SDS011;146;53.448;10.228;2024-02-28T07:56:15;17.57;;;15.97;;
317;SDS011;146;53.448;10.228;2024-02-28T07:59:02;17.40;;;15.80;;
317;SDS011;146;53.448;10.228;2024-02-28T08:01:51;15.63;;;14.13;;
317;SDS011;146;53.448;10.228;2024-02-28T08:04:38;16.10;;;14.60;;
317;SDS011;146;53.448;10.228;2024-02-28T08:07:25;15.13;;;13.70;;
317;SDS011;146;53.448;10.228;2024-02-28T08:10:12;15.70;;;14.30;;
317;SDS011;146;53.448;10.228;2024-02-28T08:12:59;16.67;;;15.13;;
317;SDS011;146;53.448;10.228;2024-02-28T08:15:46;15.60;;;14.20;;
317;SDS011;146;53.448;10.228;2024-02-28T08:18:35;15.53;;;14.10;;
317;SDS011;146;53.448;10.228;2024-02-28T08:21:22;16.47;;;14.93;;
317;SDS011;146;53.448;10.228;2024-02-28T08:24:09;18.87;;;16.93;;
317;SDS011;146;53.448;10.228;2024-02-28T08:26:57;18.63;;;17.03;;
317;SDS011;146;53.448;10.228;2024-02-28T08:29:44;19.60;;;17.80;;
317;SDS011;146;53.448;10.228;2024-02-28T08:32:32;17.03;;;15.63;;
317;SDS011;146;53.448;10.228;2024-02-28T08:35:20;17.80;;;16.10;;
317;SDS011;146;53.448;10.228;2024-02-28T08:38:09;19.17;;;17.27;;
317;SDS011;146;53.448;10.228;2024-02-28T08:40:56;18.13;;;16.33;;
317;SDS011;146;53.448;10.228;2024-02-28T08:43:43;16.50;;;14.90;;
317;SDS011;146;53.448;10.228;2024-02-28T08:46:30;19.97;;;17.90;;
317;SDS011;146;53.448;10.228;2024-02-28T08:49:17;19.43;;;17.43;;
317;SDS011;146;53.448;10.228;2024-02-28T08:52:06;17.77;;;15.97;;
317;SDS011;146;53.448;10.228;2024-02-28T08:54:53;17.40;;;15.70;;
317;SDS011;146;53.448;10.228;2024-02-28T08:57:41;19.43;;;17.53;;
317;SDS011;146;53.448;10.228;2024-02-28T09:00:28;18.33;;;16.53;;
317;SDS011;146;53.448;10.228;2024-02-28T09:03:15;20.30;;;18.30;;
317;SDS011;146;53.448;10.228;2024-02-28T09:06:03;18.47;;;16.60;;
317;SDS011;146;53.448;10.228;2024-02-28T09:08:52;19.60;;;17.67;;
317;SDS011;146;53.448;10.228;2024-02-28T09:11:39;20.73;;;18.63;;
317;SDS011;146;53.448;10.228;2024-02-28T09:14:26;24.63;;;22.03;;
317;SDS011;146;53.448;10.228;2024-02-28T09:17:14;21.40;;;19.27;;
317;SDS011;146;53.448;10.228;2024-02-28T09:20:01;20.20;;;18.07;;
317;SDS011;146;53.448;10.228;2024-02-28T09:22:51;23.70;;;21.23;;
317;SDS011;146;53.448;10.228;2024-02-28T09:25:40;22.07;;;19.77;;
317;SDS011;146;53.448;10.228;2024-02-28T09:28:27;20.73;;;18.50;;
317;SDS011;146;53.448;10.228;2024-02-28T09:31:15;23.40;;;21.00;;
317;SDS011;146;53.448;10.228;2024-02-28T09:34:02;23.57;;;21.20;;
317;SDS011;146;53.448;10.228;2024-02-28T09:36:54;22.70;;;20.07;;
317;SDS011;146;53.448;10.228;2024-02-28T09:39:41;22.70;;;20.33;;
317;SDS011;146;53.448;10.228;2024-02-28T09:42:30;23.63;;;21.20;;
317;SDS011;146;53.448;10.228;2024-02-28T09:45:17;24.60;;;22.00;;
317;SDS011;146;53.448;10.228;2024-02-28T09:48:07;23.53;;;21.13;;
317;SDS011;146;53.448;10.228;2024-02-28T09:50:55;23.00;;;20.63;;
317;SDS011;146;53.448;10.228;2024-02-28T09:53:43;22.90;;;20.60;;
317;SDS011;146;53.448;10.228;2024-02-28T09:56:31;24.17;;;21.27;;
317;SDS011;146;53.448;10.228;2024-02-28T09:59:19;23.10;;;20.70;;
317;SDS011;146;53.448;10.228;2024-02-28T10:02:09;23.00;;;20.50;;
317;SDS011;146;53.448;10.228;2024-02-28T10:04:57;24.10;;;21.67;;
317;SDS011;146;53.448;10.228;2024-02-28T10:07:45;25.17;;;22.53;;
317;SDS011;146;53.448;10.228;2024-02-28T10:10:33;23.20;;;20.80;;
317;SDS011;146;53.448;10.228;2024-02-28T10:13:23;22.77;;;20.47;;
317;SDS011;146;53.448;10.228;2024-02-28T10:16:11;21.20;;;19.03;;
317;SDS011;146;53.448;10.228;2024-02-28T10:19:00;24.10;;;21.70;;
317;SDS011;146;53.448;10.228;2024-02-28T10:21:48;23.40;;;21.10;;
317;SDS011;146;53.448;10.228;2024-02-28T10:24:36;23.57;;;20.67;;
317;SDS011;146;53.448;10.228;2024-02-28T10:27:26;23.83;;;21.33;;
317;SDS011;146;53.448;10.228;2024-02-28T10:30:13;21.53;;;19.33;;
317;SDS011;146;53.448;10.228;2024-02-28T10:33:04;25.40;;;22.00;;
317;SDS011;146;53.448;10.228;2024-02-28T10:35:51;23.10;;;20.67;;
317;SDS011;146;53.448;10.228;2024-02-28T10:38:39;23.53;;;21.03;;
317;SDS011;146;53.448;10.228;2024-02-28T10:41:26;22.90;;;20.43;;
317;SDS011;146;53.448;10.228;2024-02-28T10:44:15;22.50;;;20.10;;
317;SDS011;146;53.448;10.228;2024-02-28T10:47:03;23.43;;;20.97;;
317;SDS011;146;53.448;10.228;2024-02-28T10:49:53;22.03;;;19.70;;
317;SDS011;146;53.448;10.228;2024-02-28T10:52:43;20.90;;;18.83;;
317;SDS011;146;53.448;10.228;2024-02-28T10:55:32;22.17;;;19.97;;
317;SDS011;146;53.448;10.228;2024-02-28T10:58:20;21.43;;;19.37;;
317;SDS011;146;53.448;10.228;2024-02-28T11:01:13;21.30;;;19.13;;
317;SDS011;146;53.448;10.228;2024-02-28T11:04:03;21.43;;;19.33;;
317;SDS011;146;53.448;10.228;2024-02-28T11:06:54;20.63;;;18.57;;
317;SDS011;146;53.448;10.228;2024-02-28T11:09:42;22.00;;;19.70;;
317;SDS011;146;53.448;10.228;2024-02-28T11:12:29;20.47;;;18.37;;
317;SDS011;146;53.448;10.228;2024-02-28T11:15:16;19.80;;;17.80;;
317;SDS011;146;53.448;10.228;2024-02-28T11:18:07;22.07;;;19.80;;
317;SDS011;146;53.448;10.228;2024-02-28T11:20:58;18.40;;;16.50;;
317;SDS011;146;53.448;10.228;2024-02-28T11:23:47;19.67;;;17.77;;
317;SDS011;146;53.448;10.228;2024-02-28T11:26:35;20.20;;;18.10;;
317;SDS011;146;53.448;10.228;2024-02-28T11:29:22;21.50;;;19.30;;
317;SDS011;146;53.448;10.228;2024-02-28T11:32:11;21.20;;;19.10;;
317;SDS011;146;53.448;10.228;2024-02-28T11:35:00;21.77;;;19.63;;
317;SDS011;146;53.448;10.228;2024-02-28T11:37:48;21.17;;;18.97;;
317;SDS011;146;53.448;10.228;2024-02-28T11:40:44;20.30;;;18.17;;
317;SDS011;146;53.448;10.228;2024-02-28T11:43:38;18.37;;;16.63;;
317;SDS011;146;53.448;10.228;2024-02-28T11:46:32;21.40;;;18.43;;
317;SDS011;146;53.448;10.228;2024-02-28T11:49:22;19.80;;;17.40;;
317;SDS011;146;53.448;10.228;2024-02-28T11:52:09;19.80;;;17.80;;
317;SDS011;146;53.448;10.228;2024-02-28T11:54:58;18.47;;;16.67;;
317;SDS011;146;53.448;10.228;2024-02-28T11:57:47;19.80;;;17.80;;
317;SDS011;146;53.448;10.228;2024-02-28T12:00:36;21.40;;;19.23;;
317;SDS011;146;53.448;10.228;2024-02-28T12:03:44;20.50;;;18.30;;
317;SDS011;146;53.448;10.228;2024-02-28T12:06:46;19.67;;;17.63;;
317;SDS011;146;53.448;10.228;2024-02-28T12:09:34;20.97;;;18.60;;
317;SDS011;146;53.448;10.228;2024-02-28T12:12:22;22.07;;;19.77;;
317;SDS011;146;53.448;10.228;2024-02-28T12:15:11;21.90;;;19.77;;
317;SDS011;146;53.448;10.228;2024-02-28T12:17:59;21.80;;;19.50;;
317;SDS011;146;53.448;10.228;2024-02-28T12:20:53;20.80;;;18.70;;
317;SDS011;146;53.448;10.228;2024-02-28T12:23:44;17.80;;;16.07;;
317;SDS011;146;53.448;10.228;2024-02-28T12:26:34;21.37;;;18.03;;
317;SDS011;146;53.448;10.228;2024-02-28T12:29:22;19.60;;;17.60;;
317;SDS011;146;53.448;10.228;2024-02-28T12:32:13;16.57;;;15.03;;
317;SDS011;146;53.448;10.228;2024-02-28T12:35:02;19.43;;;17.43;;
317;SDS011;146;53.448;10.228;2024-02-28T12:37:50;18.40;;;16.53;;
317;SDS011;146;53.448;10.228;2024-02-28T12:40:37;17.80;;;16.00;;
317;SDS011;146;53.448;10.228;2024-02-28T12:43:24;18.63;;;16.73;;
317;SDS011;146;53.448;10.228;2024-02-28T12:46:12;18.70;;;16.80;;
317;SDS011;146;53.448;10.228;2024-02-28T12:49:00;19.07;;;17.07;;
317;SDS011;146;53.448;10.228;2024-02-28T12:51:48;19.73;;;17.40;;
317;SDS011;146;53.448;10.228;2024-02-28T12:54:39;17.37;;;15.67;;
317;SDS011;146;53.448;10.228;2024-02-28T12:57:27;18.40;;;16.60;;
317;SDS011;146;53.448;10.228;2024-02-28T13:00:15;18.67;;;16.87;;
317;SDS011;146;53.448;10.228;2024-02-28T13:03:03;19.30;;;17.20;;
317;SDS011;146;53.448;10.228;2024-02-28T13:05:54;19.47;;;17.47;;
317;SDS011;146;53.448;10.228;2024-02-28T13:08:41;17.40;;;15.63;;
317;SDS011;146;53.448;10.228;2024-02-28T13:11:31;21.30;;;19.17;;
317;SDS011;146;53.448;10.228;2024-02-28T13:14:22;20.43;;;18.33;;
317;SDS011;146;53.448;10.228;2024-02-28T13:17:09;19.53;;;17.73;;
317;SDS011;146;53.448;10.228;2024-02-28T13:19:56;20.73;;;18.50;;
317;SDS011;146;53.448;10.228;2024-02-28T13:22:45;20.00;;;18.00;;
317;SDS011;146;53.448;10.228;2024-02-28T13:25:36;17.70;;;15.90;;
317;SDS011;146;53.448;10.228;2024-02-28T13:28:50;20.37;;;17.53;;
317;SDS011;146;53.448;10.228;2024-02-28T13:31:37;19.53;;;17.40;;
317;SDS011;146;53.448;10.228;2024-02-28T13:34:24;18.63;;;16.73;;
317;SDS011;146;53.448;10.228;2024-02-28T13:37:11;17.67;;;15.90;;
317;SDS011;146;53.448;10.228;2024-02-28T13:40:00;17.83;;;15.93;;
317;SDS011;146;53.448;10.228;2024-02-28T13:42:47;16.60;;;15.00;;
317;SDS011;146;53.448;10.228;2024-02-28T13:45:34;16.90;;;15.23;;
317;SDS011;146;53.448;10.228;2024-02-28T13:48:22;18.30;;;16.40;;
317;SDS011;146;53.448;10.228;2024-02-28T13:51:10;15.87;;;14.33;;
317;SDS011;146;53.448;10.228;2024-02-28T13:53:58;16.93;;;15.23;;
317;SDS011;146;53.448;10.228;2024-02-28T13:56:46;17.87;;;16.03;;
317;SDS011;146;53.448;10.228;2024-02-28T13:59:33;17.27;;;15.57;;
317;SDS011;146;53.448;10.228;2024-02-28T14:02:21;23.23;;;20.83;;
317;SDS011;146;53.448;10.228;2024-02-28T14:05:11;18.70;;;16.87;;
317;SDS011;146;53.448;10.228;2024-02-28T14:07:58;18.00;;;16.20;;
317;SDS011;146;53.448;10.228;2024-02-28T14:10:46;17.40;;;15.87;;
317;SDS011;146;53.448;10.228;2024-02-28T14:13:35;16.57;;;15.07;;
317;SDS011;146;53.448;10.228;2024-02-28T14:16:23;18.20;;;16.40;;
317;SDS011;146;53.448;10.228;2024-02-28T14:19:20;18.63;;;16.63;;
317;SDS011;146;53.448;10.228;2024-02-28T14:22:24;15.77;;;14.17;;
317;SDS011;146;53.448;10.228;2024-02-28T14:25:12;16.17;;;14.67;;
317;SDS011;146;53.448;10.228;2024-02-28T14:28:00;15.67;;;14.13;;
317;SDS011;146;53.448;10.228;2024-02-28T14:30:49;15.17;;;13.77;;
317;SDS011;146;53.448;10.228;2024-02-28T14:33:36;13.53;;;12.23;;
317;SDS011;146;53.448;10.228;2024-02-28T14:36:23;14.53;;;13.03;;
317;SDS011;146;53.448;10.228;2024-02-28T14:39:13;13.40;;;12.00;;
317;SDS011;146;53.448;10.228;2024-02-28T14:42:03;14.77;;;13.37;;
317;SDS011;146;53.448;10.228;2024-02-28T14:44:50;15.07;;;13.53;;
317;SDS011;146;53.448;10.228;2024-02-28T14:47:40;15.07;;;13.67;;
317;SDS011;146;53.448;10.228;2024-02-28T14:50:27;14.57;;;12.97;;
317;SDS011;146;53.448;10.228;2024-02-28T14:53:14;18.67;;;16.73;;
317;SDS011;146;53.448;10.228;2024-02-28T14:56:04;15.60;;;12.83;;
317;SDS011;146;53.448;10.228;2024-02-28T14:58:52;16.27;;;14.67;;
317;SDS011;146;53.448;10.228;2024-02-28T15:01:41;17.13;;;14.43;;
317;SDS011;146;53.448;10.228;2024-02-28T15:04:29;13.93;;;12.50;;
317;SDS011;146;53.448;10.228;2024-02-28T15:07:17;13.23;;;12.03;;
317;SDS011;146;53.448;10.228;2024-02-28T15:10:06;15.13;;;13.60;;
317;SDS011;146;53.448;10.228;2024-02-28T15:12:54;16.70;;;14.37;;
317;SDS011;146;53.448;10.228;2024-02-28T15:15:41;15.70;;;14.20;;
317;SDS011;146;53.448;10.228;2024-02-28T15:18:28;15.93;;;14.10;;
317;SDS011;146;53.448;10.228;2024-02-28T15:21:17;15.37;;;13.87;;
317;SDS011;146;53.448;10.228;2024-02-28T15:24:04;16.27;;;14.67;;
317;SDS011;146;53.448;10.228;2024-02-28T15:26:52;15.17;;;13.67;;
317;SDS011;146;53.448;10.228;2024-02-28T15:29:39;15.93;;;14.20;;
317;SDS011;146;53.448;10.228;2024-02-28T15:32:29;16.30;;;14.70;;
317;SDS011;146;53.448;10.228;2024-02-28T15:35:17;16.20;;;14.50;;
317;SDS011;146;53.448;10.228;2024-02-28T15:38:07;15.60;;;14.10;;
317;SDS011;146;53.448;10.228;2024-02-28T15:40:55;17.37;;;15.63;;
317;SDS011;146;53.448;10.228;2024-02-28T15:43:42;16.90;;;15.20;;
317;SDS011;146;53.448;10.228;2024-02-28T15:46:30;15.60;;;14.10;;
317;SDS011;146;53.448;10.228;2024-02-28T15:49:17;17.13;;;15.33;;
317;SDS011;146;53.448;10.228;2024-02-28T15:52:06;17.57;;;15.77;;
317;SDS011;146;53.448;10.228;2024-02-28T15:54:57;18.73;;;14.67;;
317;SDS011;146;53.448;10.228;2024-02-28T15:57:44;18.57;;;15.23;;
317;SDS011;146;53.448;10.228;2024-02-28T16:00:32;16.60;;;14.90;;
317;SDS011;146;53.448;10.228;2024-02-28T16:03:22;21.43;;;16.57;;
317;SDS011;146;53.448;10.228;2024-02-28T16:06:13;16.37;;;14.67;;
317;SDS011;146;53.448;10.228;2024-02-28T16:09:00;17.67;;;15.77;;
317;SDS011;146;53.448;10.228;2024-02-28T16:11:51;18.03;;;16.23;;
317;SDS011;146;53.448;10.228;2024-02-28T16:14:38;15.83;;;14.20;;
317;SDS011;146;53.448;10.228;2024-02-28T16:17:25;16.00;;;14.40;;
317;SDS011;146;53.448;10.228;2024-02-28T16:20:12;15.77;;;14.27;;
317;SDS011;146;53.448;10.228;2024-02-28T16:23:01;15.00;;;13.40;;
317;SDS011;146;53.448;10.228;2024-02-28T16:25:50;16.90;;;15.30;;
317;SDS011;146;53.448;10.228;2024-02-28T16:28:42;17.23;;;15.30;;
317;SDS011;146;53.448;10.228;2024-02-28T16:31:29;16.63;;;15.07;;
317;SDS011;146;53.448;10.228;2024-02-28T16:34:16;32.10;;;28.70;;
317;SDS011;146;53.448;10.228;2024-02-28T16:37:03;17.23;;;15.63;;
317;SDS011;146;53.448;10.228;2024-02-28T16:39:50;17.10;;;15.37;;
317;SDS011;146;53.448;10.228;2024-02-28T16:42:38;16.40;;;14.73;;
317;SDS011;146;53.448;10.228;2024-02-28T16:45:28;15.47;;;13.97;;
317;SDS011;146;53.448;10.228;2024-02-28T16:48:15;14.80;;;13.30;;
317;SDS011;146;53.448;10.228;2024-02-28T16:51:04;17.17;;;15.43;;
317;SDS011;146;53.448;10.228;2024-02-28T16:53:51;14.27;;;12.77;;
317;SDS011;146;53.448;10.228;2024-02-28T16:56:38;15.17;;;13.57;;
317;SDS011;146;53.448;10.228;2024-02-28T16:59:25;17.37;;;14.50;;
317;SDS011;146;53.448;10.228;2024-02-28T17:02:14;15.17;;;13.60;;
317;SDS011;146;53.448;10.228;2024-02-28T17:05:14;15.37;;;13.77;;
317;SDS011;146;53.448;10.228;2024-02-28T17:08:01;16.60;;;14.90;;
317;SDS011;146;53.448;10.228;2024-02-28T17:10:48;17.50;;;14.90;;
317;SDS011;146;53.448;10.228;2024-02-28T17:13:35;16.30;;;14.60;;
317;SDS011;146;53.448;10.228;2024-02-28T17:16:23;18.87;;;16.70;;
317;SDS011;146;53.448;10.228;2024-02-28T17:22:31;21.67;;;18.03;;
317;SDS011;146;53.448;10.228;2024-02-28T17:25:19;19.67;;;16.40;;
317;SDS011;146;53.448;10.228;2024-02-28T17:28:06;18.83;;;15.87;;
317;SDS011;146;53.448;10.228;2024-02-28T17:30:53;22.43;;;18.20;;